sensor_id;sensor_type;location;lat;lon;timestamp;temperature;humidity
20881;DHT22;10600;53.096;8.802;2022-09-27T00:00:10;11.30;99.90
20881;DHT22;10600;53.096;8.802;2022-09-27T00:01:12;11.30;99.90
20881;DHT22;10600;53.096;8.802;2022-09-27T00:02:13;11.30;99.90
20881;DHT22;10600;53.096;8.802;2022-09-27T00:03:13;11.30;99.90
20881;DHT22;10600;53.096;8.802;2022-09-27T00:04:14;11.30;99.90
20881;DHT22;10600;53.096;8.802;2022-09-27T00:05:15;11.30;99.90
20881;DHT22;10600;53.096;8.802;2022-09-27T00:06:26;11.30;99.90
20881;DHT22;10600;53.096;8.802;2022-09-27T00:07:27;11.30;99.90
20881;DHT22;10600;53.096;8.802;2022-09-27T00:08:28;11.30;99.90
20881;DHT22;10600;53.096;8.802;2022-09-27T00:09:28;11.30;99.90
20881;DHT22;10600;53.096;8.802;2022-09-27T00:10:30;11.30;99.90
20881;DHT22;10600;53.096;8.802;2022-09-27T00:11:36;11.30;99.90
20881;DHT22;10600;53.096;8.802;2022-09-27T00:12:38;11.30;99.90
20881;DHT22;10600;53.096;8.802;2022-09-27T00:13:39;11.30;99.90
20881;DHT22;10600;53.096;8.802;2022-09-27T00:14:39;11.30;99.90
20881;DHT22;10600;53.096;8.802;2022-09-27T00:15:40;11.30;99.90
20881;DHT22;10600;53.096;8.802;2022-09-27T00:16:42;11.30;99.90
20881;DHT22;10600;53.096;8.802;2022-09-27T00:17:43;11.30;99.90
20881;DHT22;10600;53.096;8.802;2022-09-27T00:18:43;11.30;99.90
20881;DHT22;10600;53.096;8.802;2022-09-27T00:19:44;11.30;99.90
20881;DHT22;10600;53.096;8.802;2022-09-27T00:20:45;11.30;99.90
20881;DHT22;10600;53.096;8.802;2022-09-27T00:21:46;11.30;99.90
20881;DHT22;10600;53.096;8.802;2022-09-27T00:22:48;11.30;99.90
20881;DHT22;10600;53.096;8.802;2022-09-27T00:23:48;11.30;99.90
20881;DHT22;10600;53.096;8.802;2022-09-27T00:24:50;11.30;99.90
20881;DHT22;10600;53.096;8.802;2022-09-27T00:25:57;11.30;99.90
20881;DHT22;10600;53.096;8.802;2022-09-27T00:26:58;11.30;99.90
20881;DHT22;10600;53.096;8.802;2022-09-27T00:27:59;11.30;99.90
20881;DHT22;10600;53.096;8.802;2022-09-27T00:28:59;11.30;99.90
20881;DHT22;10600;53.096;8.802;2022-09-27T00:30:00;11.30;99.90
20881;DHT22;10600;53.096;8.802;2022-09-27T00:31:01;11.30;99.90
20881;DHT22;10600;53.096;8.802;2022-09-27T00:32:02;11.30;99.90
20881;DHT22;10600;53.096;8.802;2022-09-27T00:33:02;11.30;99.90
20881;DHT22;10600;53.096;8.802;2022-09-27T00:34:05;11.30;99.90
20881;DHT22;10600;53.096;8.802;2022-09-27T00:35:06;11.30;99.90
20881;DHT22;10600;53.096;8.802;2022-09-27T00:36:09;11.30;99.90
20881;DHT22;10600;53.096;8.802;2022-09-27T00:37:10;11.30;99.90
20881;DHT22;10600;53.096;8.802;2022-09-27T00:38:11;11.30;99.90
20881;DHT22;10600;53.096;8.802;2022-09-27T00:39:13;11.30;99.90
20881;DHT22;10600;53.096;8.802;2022-09-27T00:40:14;11.30;99.90
20881;DHT22;10600;53.096;8.802;2022-09-27T00:41:18;11.30;99.90
20881;DHT22;10600;53.096;8.802;2022-09-27T00:42:19;11.30;99.90
20881;DHT22;10600;53.096;8.802;2022-09-27T00:43:22;11.30;99.90
20881;DHT22;10600;53.096;8.802;2022-09-27T00:45:28;11.30;99.90
20881;DHT22;10600;53.096;8.802;2022-09-27T00:46:46;11.30;99.90
20881;DHT22;10600;53.096;8.802;2022-09-27T00:47:58;11.30;99.90
20881;DHT22;10600;53.096;8.802;2022-09-27T00:49:22;11.30;99.90
20881;DHT22;10600;53.096;8.802;2022-09-27T00:50:28;11.30;99.90
20881;DHT22;10600;53.096;8.802;2022-09-27T00:51:30;11.30;99.90
20881;DHT22;10600;53.096;8.802;2022-09-27T00:53:50;11.30;99.90
20881;DHT22;10600;53.096;8.802;2022-09-27T00:55:02;11.30;99.90
20881;DHT22;10600;53.096;8.802;2022-09-27T00:56:09;11.30;99.90
20881;DHT22;10600;53.096;8.802;2022-09-27T00:57:12;11.30;99.90
20881;DHT22;10600;53.096;8.802;2022-09-27T00:58:14;11.30;99.90
20881;DHT22;10600;53.096;8.802;2022-09-27T00:59:32;11.30;99.90
20881;DHT22;10600;53.096;8.802;2022-09-27T01:00:35;11.30;99.90
20881;DHT22;10600;53.096;8.802;2022-09-27T01:01:38;11.30;99.90
20881;DHT22;10600;53.096;8.802;2022-09-27T01:02:43;11.40;99.90
20881;DHT22;10600;53.096;8.802;2022-09-27T01:04:52;11.40;99.90
20881;DHT22;10600;53.096;8.802;2022-09-27T01:05:53;11.40;99.90
20881;DHT22;10600;53.096;8.802;2022-09-27T01:06:54;11.40;99.90
20881;DHT22;10600;53.096;8.802;2022-09-27T01:07:55;11.30;99.90
20881;DHT22;10600;53.096;8.802;2022-09-27T01:08:59;11.40;99.90
20881;DHT22;10600;53.096;8.802;2022-09-27T01:10:00;11.40;99.90
20881;DHT22;10600;53.096;8.802;2022-09-27T01:11:32;11.40;99.90
20881;DHT22;10600;53.096;8.802;2022-09-27T01:15:48;11.40;99.90
20881;DHT22;10600;53.096;8.802;2022-09-27T01:19:19;11.30;99.90
20881;DHT22;10600;53.096;8.802;2022-09-27T01:21:44;11.40;99.90
20881;DHT22;10600;53.096;8.802;2022-09-27T01:24:20;11.40;99.90
20881;DHT22;10600;53.096;8.802;2022-09-27T01:28:10;11.30;99.90
20881;DHT22;10600;53.096;8.802;2022-09-27T01:31:22;11.30;99.90
20881;DHT22;10600;53.096;8.802;2022-09-27T01:32:46;11.30;99.90
20881;DHT22;10600;53.096;8.802;2022-09-27T01:34:23;11.30;99.90
20881;DHT22;10600;53.096;8.802;2022-09-27T01:37:51;11.30;99.90
20881;DHT22;10600;53.096;8.802;2022-09-27T01:41:36;11.30;99.90
20881;DHT22;10600;53.096;8.802;2022-09-27T01:42:46;11.30;99.90
20881;DHT22;10600;53.096;8.802;2022-09-27T01:43:58;11.30;99.90
20881;DHT22;10600;53.096;8.802;2022-09-27T01:45:08;11.30;99.90
20881;DHT22;10600;53.096;8.802;2022-09-27T01:46:34;11.30;99.90
20881;DHT22;10600;53.096;8.802;2022-09-27T01:47:56;11.30;99.90
20881;DHT22;10600;53.096;8.802;2022-09-27T01:49:03;11.30;99.90
20881;DHT22;10600;53.096;8.802;2022-09-27T01:50:12;11.30;99.90
20881;DHT22;10600;53.096;8.802;2022-09-27T01:51:24;11.30;99.90
20881;DHT22;10600;53.096;8.802;2022-09-27T01:52:50;11.30;99.90
20881;DHT22;10600;53.096;8.802;2022-09-27T01:53:55;11.20;99.90
20881;DHT22;10600;53.096;8.802;2022-09-27T01:54:59;11.20;99.90
20881;DHT22;10600;53.096;8.802;2022-09-27T01:56:08;11.20;99.90
20881;DHT22;10600;53.096;8.802;2022-09-27T01:57:12;11.20;99.90
20881;DHT22;10600;53.096;8.802;2022-09-27T01:58:17;11.20;99.90
20881;DHT22;10600;53.096;8.802;2022-09-27T02:00:35;11.20;99.90
20881;DHT22;10600;53.096;8.802;2022-09-27T02:01:37;11.20;99.90
20881;DHT22;10600;53.096;8.802;2022-09-27T02:03:08;11.20;99.90
20881;DHT22;10600;53.096;8.802;2022-09-27T02:04:13;11.20;99.90
20881;DHT22;10600;53.096;8.802;2022-09-27T02:05:16;11.20;99.90
20881;DHT22;10600;53.096;8.802;2022-09-27T02:06:23;11.20;99.90
20881;DHT22;10600;53.096;8.802;2022-09-27T02:07:34;11.20;99.90
20881;DHT22;10600;53.096;8.802;2022-09-27T02:08:58;11.20;99.90
20881;DHT22;10600;53.096;8.802;2022-09-27T02:10:04;11.20;99.90
20881;DHT22;10600;53.096;8.802;2022-09-27T02:11:11;11.20;99.90
20881;DHT22;10600;53.096;8.802;2022-09-27T02:12:15;11.20;99.90
20881;DHT22;10600;53.096;8.802;2022-09-27T02:13:27;11.10;99.90
20881;DHT22;10600;53.096;8.802;2022-09-27T02:14:52;11.10;99.90
20881;DHT22;10600;53.096;8.802;2022-09-27T02:18:28;11.10;99.90
20881;DHT22;10600;53.096;8.802;2022-09-27T02:19:41;11.10;99.90
20881;DHT22;10600;53.096;8.802;2022-09-27T02:20:54;11.10;99.90
20881;DHT22;10600;53.096;8.802;2022-09-27T02:22:31;11.10;99.90
20881;DHT22;10600;53.096;8.802;2022-09-27T02:23:48;11.10;99.90
20881;DHT22;10600;53.096;8.802;2022-09-27T02:27:32;11.10;99.90
20881;DHT22;10600;53.096;8.802;2022-09-27T02:28:44;11.10;99.90
20881;DHT22;10600;53.096;8.802;2022-09-27T02:29:55;11.00;99.90
20881;DHT22;10600;53.096;8.802;2022-09-27T02:30:58;11.10;99.90
20881;DHT22;10600;53.096;8.802;2022-09-27T02:31:59;11.00;99.90
20881;DHT22;10600;53.096;8.802;2022-09-27T02:32:59;11.00;99.90
20881;DHT22;10600;53.096;8.802;2022-09-27T02:34:07;11.00;99.90
20881;DHT22;10600;53.096;8.802;2022-09-27T02:35:21;11.00;99.90
20881;DHT22;10600;53.096;8.802;2022-09-27T02:36:23;11.00;99.90
20881;DHT22;10600;53.096;8.802;2022-09-27T02:37:24;11.00;99.90
20881;DHT22;10600;53.096;8.802;2022-09-27T02:38:25;11.00;99.90
20881;DHT22;10600;53.096;8.802;2022-09-27T02:39:26;11.00;99.90
20881;DHT22;10600;53.096;8.802;2022-09-27T02:40:32;11.00;99.90
20881;DHT22;10600;53.096;8.802;2022-09-27T02:41:33;11.00;99.90
20881;DHT22;10600;53.096;8.802;2022-09-27T02:42:34;10.90;99.90
20881;DHT22;10600;53.096;8.802;2022-09-27T02:43:34;10.90;99.90
20881;DHT22;10600;53.096;8.802;2022-09-27T02:44:36;10.90;99.90
20881;DHT22;10600;53.096;8.802;2022-09-27T02:53:25;10.90;99.90
20881;DHT22;10600;53.096;8.802;2022-09-27T02:54:51;10.90;99.90
20881;DHT22;10600;53.096;8.802;2022-09-27T03:01:34;10.80;99.90
20881;DHT22;10600;53.096;8.802;2022-09-27T03:05:14;10.70;99.90
20881;DHT22;10600;53.096;8.802;2022-09-27T03:06:18;10.70;99.90
20881;DHT22;10600;53.096;8.802;2022-09-27T03:07:21;10.70;99.90
20881;DHT22;10600;53.096;8.802;2022-09-27T03:08:22;10.60;99.90
20881;DHT22;10600;53.096;8.802;2022-09-27T03:09:27;10.60;99.90
20881;DHT22;10600;53.096;8.802;2022-09-27T03:10:28;10.60;99.90
20881;DHT22;10600;53.096;8.802;2022-09-27T03:11:29;10.60;99.90
20881;DHT22;10600;53.096;8.802;2022-09-27T03:12:30;10.60;99.90
20881;DHT22;10600;53.096;8.802;2022-09-27T03:13:31;10.60;99.90
20881;DHT22;10600;53.096;8.802;2022-09-27T03:14:34;10.60;99.90
20881;DHT22;10600;53.096;8.802;2022-09-27T03:15:34;10.60;99.90
20881;DHT22;10600;53.096;8.802;2022-09-27T03:16:35;10.60;99.90
20881;DHT22;10600;53.096;8.802;2022-09-27T03:17:36;10.60;99.90
20881;DHT22;10600;53.096;8.802;2022-09-27T03:18:36;10.60;99.90
20881;DHT22;10600;53.096;8.802;2022-09-27T03:19:37;10.60;99.90
20881;DHT22;10600;53.096;8.802;2022-09-27T03:20:37;10.60;99.90
20881;DHT22;10600;53.096;8.802;2022-09-27T03:21:38;10.60;99.90
20881;DHT22;10600;53.096;8.802;2022-09-27T03:22:39;10.60;99.90
20881;DHT22;10600;53.096;8.802;2022-09-27T03:23:40;10.50;99.90
20881;DHT22;10600;53.096;8.802;2022-09-27T03:24:41;10.60;99.90
20881;DHT22;10600;53.096;8.802;2022-09-27T03:25:42;10.60;99.90
20881;DHT22;10600;53.096;8.802;2022-09-27T03:26:43;10.50;99.90
20881;DHT22;10600;53.096;8.802;2022-09-27T03:27:44;10.50;99.90
20881;DHT22;10600;53.096;8.802;2022-09-27T03:28:44;10.50;99.90
20881;DHT22;10600;53.096;8.802;2022-09-27T03:29:45;10.50;99.90
20881;DHT22;10600;53.096;8.802;2022-09-27T03:30:46;10.50;99.90
20881;DHT22;10600;53.096;8.802;2022-09-27T03:31:46;10.50;99.90
20881;DHT22;10600;53.096;8.802;2022-09-27T03:32:47;10.50;99.90
20881;DHT22;10600;53.096;8.802;2022-09-27T03:33:48;10.50;99.90
20881;DHT22;10600;53.096;8.802;2022-09-27T03:34:50;10.50;99.90
20881;DHT22;10600;53.096;8.802;2022-09-27T03:35:50;10.50;99.90
20881;DHT22;10600;53.096;8.802;2022-09-27T03:36:51;10.50;99.90
20881;DHT22;10600;53.096;8.802;2022-09-27T03:37:52;10.50;99.90
20881;DHT22;10600;53.096;8.802;2022-09-27T03:38:52;10.40;99.90
20881;DHT22;10600;53.096;8.802;2022-09-27T03:39:53;10.50;99.90
20881;DHT22;10600;53.096;8.802;2022-09-27T03:40:54;10.40;99.90
20881;DHT22;10600;53.096;8.802;2022-09-27T03:41:55;10.40;99.90
20881;DHT22;10600;53.096;8.802;2022-09-27T03:42:56;10.40;99.90
20881;DHT22;10600;53.096;8.802;2022-09-27T03:43:57;10.40;99.90
20881;DHT22;10600;53.096;8.802;2022-09-27T03:44:59;10.40;99.90
20881;DHT22;10600;53.096;8.802;2022-09-27T03:45:59;10.40;99.90
20881;DHT22;10600;53.096;8.802;2022-09-27T03:47:00;10.40;99.90
20881;DHT22;10600;53.096;8.802;2022-09-27T03:48:01;10.40;99.90
20881;DHT22;10600;53.096;8.802;2022-09-27T03:49:02;10.40;99.90
20881;DHT22;10600;53.096;8.802;2022-09-27T03:50:02;10.40;99.90
20881;DHT22;10600;53.096;8.802;2022-09-27T03:51:03;10.40;99.90
20881;DHT22;10600;53.096;8.802;2022-09-27T03:52:04;10.40;99.90
20881;DHT22;10600;53.096;8.802;2022-09-27T03:53:05;10.40;99.90
20881;DHT22;10600;53.096;8.802;2022-09-27T03:54:05;10.30;99.90
20881;DHT22;10600;53.096;8.802;2022-09-27T03:55:06;10.30;99.90
20881;DHT22;10600;53.096;8.802;2022-09-27T03:56:07;10.30;99.90
20881;DHT22;10600;53.096;8.802;2022-09-27T03:57:08;10.30;99.90
20881;DHT22;10600;53.096;8.802;2022-09-27T03:58:08;10.30;99.90
20881;DHT22;10600;53.096;8.802;2022-09-27T03:59:09;10.30;99.90
20881;DHT22;10600;53.096;8.802;2022-09-27T04:00:11;10.30;99.90
20881;DHT22;10600;53.096;8.802;2022-09-27T04:01:12;10.30;99.90
20881;DHT22;10600;53.096;8.802;2022-09-27T04:02:13;10.30;99.90
20881;DHT22;10600;53.096;8.802;2022-09-27T04:03:13;10.30;99.90
20881;DHT22;10600;53.096;8.802;2022-09-27T04:04:14;10.30;99.90
20881;DHT22;10600;53.096;8.802;2022-09-27T04:05:15;10.30;99.90
20881;DHT22;10600;53.096;8.802;2022-09-27T04:06:15;10.30;99.90
20881;DHT22;10600;53.096;8.802;2022-09-27T04:07:18;10.30;99.90
20881;DHT22;10600;53.096;8.802;2022-09-27T04:08:19;10.30;99.90
20881;DHT22;10600;53.096;8.802;2022-09-27T04:09:21;10.30;99.90
20881;DHT22;10600;53.096;8.802;2022-09-27T04:10:22;10.40;99.90
20881;DHT22;10600;53.096;8.802;2022-09-27T04:11:23;10.30;99.90
20881;DHT22;10600;53.096;8.802;2022-09-27T04:12:23;10.30;99.90
20881;DHT22;10600;53.096;8.802;2022-09-27T04:13:24;10.30;99.90
20881;DHT22;10600;53.096;8.802;2022-09-27T04:14:25;10.40;99.90
20881;DHT22;10600;53.096;8.802;2022-09-27T04:15:25;10.40;99.90
20881;DHT22;10600;53.096;8.802;2022-09-27T04:16:26;10.40;99.90
20881;DHT22;10600;53.096;8.802;2022-09-27T04:17:27;10.40;99.90
20881;DHT22;10600;53.096;8.802;2022-09-27T04:18:28;10.40;99.90
20881;DHT22;10600;53.096;8.802;2022-09-27T04:19:29;10.40;99.90
20881;DHT22;10600;53.096;8.802;2022-09-27T04:20:30;10.40;99.90
20881;DHT22;10600;53.096;8.802;2022-09-27T04:21:30;10.40;99.90
20881;DHT22;10600;53.096;8.802;2022-09-27T04:22:31;10.40;99.90
20881;DHT22;10600;53.096;8.802;2022-09-27T04:23:32;10.40;99.90
20881;DHT22;10600;53.096;8.802;2022-09-27T04:24:33;10.40;99.90
20881;DHT22;10600;53.096;8.802;2022-09-27T04:25:33;10.40;99.90
20881;DHT22;10600;53.096;8.802;2022-09-27T04:26:34;10.40;99.90
20881;DHT22;10600;53.096;8.802;2022-09-27T04:27:35;10.40;99.90
20881;DHT22;10600;53.096;8.802;2022-09-27T04:28:36;10.40;99.90
20881;DHT22;10600;53.096;8.802;2022-09-27T04:29:37;10.50;99.90
20881;DHT22;10600;53.096;8.802;2022-09-27T04:30:41;10.50;99.90
20881;DHT22;10600;53.096;8.802;2022-09-27T04:31:42;10.50;99.90
20881;DHT22;10600;53.096;8.802;2022-09-27T04:32:46;10.40;99.90
20881;DHT22;10600;53.096;8.802;2022-09-27T04:33:47;10.40;99.90
20881;DHT22;10600;53.096;8.802;2022-09-27T04:34:47;10.40;99.90
20881;DHT22;10600;53.096;8.802;2022-09-27T04:36:10;10.50;99.90
20881;DHT22;10600;53.096;8.802;2022-09-27T04:37:26;10.40;99.90
20881;DHT22;10600;53.096;8.802;2022-09-27T04:38:27;10.50;99.90
20881;DHT22;10600;53.096;8.802;2022-09-27T04:39:27;10.50;99.90
20881;DHT22;10600;53.096;8.802;2022-09-27T04:40:28;10.50;99.90
20881;DHT22;10600;53.096;8.802;2022-09-27T04:41:29;10.50;99.90
20881;DHT22;10600;53.096;8.802;2022-09-27T04:42:30;10.50;99.90
20881;DHT22;10600;53.096;8.802;2022-09-27T04:43:31;10.40;99.90
20881;DHT22;10600;53.096;8.802;2022-09-27T04:44:31;10.50;99.90
20881;DHT22;10600;53.096;8.802;2022-09-27T04:45:32;10.40;99.90
20881;DHT22;10600;53.096;8.802;2022-09-27T04:46:33;10.40;99.90
20881;DHT22;10600;53.096;8.802;2022-09-27T04:47:34;10.40;99.90
20881;DHT22;10600;53.096;8.802;2022-09-27T04:48:35;10.40;99.90
20881;DHT22;10600;53.096;8.802;2022-09-27T04:49:36;10.40;99.90
20881;DHT22;10600;53.096;8.802;2022-09-27T04:50:38;10.50;99.90
20881;DHT22;10600;53.096;8.802;2022-09-27T04:51:39;10.40;99.90
20881;DHT22;10600;53.096;8.802;2022-09-27T04:52:40;10.40;99.90
20881;DHT22;10600;53.096;8.802;2022-09-27T04:53:41;10.50;99.90
20881;DHT22;10600;53.096;8.802;2022-09-27T04:54:41;10.40;99.90
20881;DHT22;10600;53.096;8.802;2022-09-27T04:55:48;10.40;99.90
20881;DHT22;10600;53.096;8.802;2022-09-27T04:56:49;10.40;99.90
20881;DHT22;10600;53.096;8.802;2022-09-27T04:57:50;10.40;99.90
20881;DHT22;10600;53.096;8.802;2022-09-27T04:58:50;10.40;99.90
20881;DHT22;10600;53.096;8.802;2022-09-27T04:59:51;10.40;99.90
20881;DHT22;10600;53.096;8.802;2022-09-27T05:00:51;10.40;99.90
20881;DHT22;10600;53.096;8.802;2022-09-27T05:01:55;10.30;99.90
20881;DHT22;10600;53.096;8.802;2022-09-27T05:02:58;10.40;99.90
20881;DHT22;10600;53.096;8.802;2022-09-27T05:03:59;10.30;99.90
20881;DHT22;10600;53.096;8.802;2022-09-27T05:05:00;10.30;99.90
20881;DHT22;10600;53.096;8.802;2022-09-27T05:06:00;10.30;99.90
20881;DHT22;10600;53.096;8.802;2022-09-27T05:07:02;10.30;99.90
20881;DHT22;10600;53.096;8.802;2022-09-27T05:08:03;10.30;99.90
20881;DHT22;10600;53.096;8.802;2022-09-27T05:09:03;10.30;99.90
20881;DHT22;10600;53.096;8.802;2022-09-27T05:10:05;10.30;99.90
20881;DHT22;10600;53.096;8.802;2022-09-27T05:11:06;10.30;99.90
20881;DHT22;10600;53.096;8.802;2022-09-27T05:12:07;10.30;99.90
20881;DHT22;10600;53.096;8.802;2022-09-27T05:13:08;10.30;99.90
20881;DHT22;10600;53.096;8.802;2022-09-27T05:14:08;10.30;99.90
20881;DHT22;10600;53.096;8.802;2022-09-27T05:15:09;10.30;99.90
20881;DHT22;10600;53.096;8.802;2022-09-27T05:16:10;10.30;99.90
20881;DHT22;10600;53.096;8.802;2022-09-27T05:17:11;10.30;99.90
20881;DHT22;10600;53.096;8.802;2022-09-27T05:18:12;10.20;99.90
20881;DHT22;10600;53.096;8.802;2022-09-27T05:19:12;10.20;99.90
20881;DHT22;10600;53.096;8.802;2022-09-27T05:20:13;10.20;99.90
20881;DHT22;10600;53.096;8.802;2022-09-27T05:21:14;10.20;99.90
20881;DHT22;10600;53.096;8.802;2022-09-27T05:22:14;10.20;99.90
20881;DHT22;10600;53.096;8.802;2022-09-27T05:23:15;10.20;99.90
20881;DHT22;10600;53.096;8.802;2022-09-27T05:24:16;10.20;99.90
20881;DHT22;10600;53.096;8.802;2022-09-27T05:25:17;10.20;99.90
20881;DHT22;10600;53.096;8.802;2022-09-27T05:26:18;10.20;99.90
20881;DHT22;10600;53.096;8.802;2022-09-27T05:27:18;10.20;99.90
20881;DHT22;10600;53.096;8.802;2022-09-27T05:28:19;10.20;99.90
20881;DHT22;10600;53.096;8.802;2022-09-27T05:29:20;10.20;99.90
20881;DHT22;10600;53.096;8.802;2022-09-27T05:30:21;10.10;99.90
20881;DHT22;10600;53.096;8.802;2022-09-27T05:31:21;10.10;99.90
20881;DHT22;10600;53.096;8.802;2022-09-27T05:32:22;10.10;99.90
20881;DHT22;10600;53.096;8.802;2022-09-27T05:33:23;10.10;99.90
20881;DHT22;10600;53.096;8.802;2022-09-27T05:34:23;10.10;99.90
20881;DHT22;10600;53.096;8.802;2022-09-27T05:35:24;10.10;99.90
20881;DHT22;10600;53.096;8.802;2022-09-27T05:36:25;10.10;99.90
20881;DHT22;10600;53.096;8.802;2022-09-27T05:37:26;10.10;99.90
20881;DHT22;10600;53.096;8.802;2022-09-27T05:38:27;10.10;99.90
20881;DHT22;10600;53.096;8.802;2022-09-27T05:39:27;10.10;99.90
20881;DHT22;10600;53.096;8.802;2022-09-27T05:40:28;10.10;99.90
20881;DHT22;10600;53.096;8.802;2022-09-27T05:41:29;10.10;99.90
20881;DHT22;10600;53.096;8.802;2022-09-27T05:42:32;10.10;99.90
20881;DHT22;10600;53.096;8.802;2022-09-27T05:43:35;10.10;99.90
20881;DHT22;10600;53.096;8.802;2022-09-27T05:44:36;10.10;99.90
20881;DHT22;10600;53.096;8.802;2022-09-27T05:45:38;10.10;99.90
20881;DHT22;10600;53.096;8.802;2022-09-27T05:46:38;10.10;99.90
20881;DHT22;10600;53.096;8.802;2022-09-27T05:47:39;10.10;99.90
20881;DHT22;10600;53.096;8.802;2022-09-27T05:48:40;10.10;99.90
20881;DHT22;10600;53.096;8.802;2022-09-27T05:49:40;10.10;99.90
20881;DHT22;10600;53.096;8.802;2022-09-27T05:50:41;10.10;99.90
20881;DHT22;10600;53.096;8.802;2022-09-27T05:51:42;10.10;99.90
20881;DHT22;10600;53.096;8.802;2022-09-27T05:52:43;10.10;99.90
20881;DHT22;10600;53.096;8.802;2022-09-27T05:53:43;10.10;99.90
20881;DHT22;10600;53.096;8.802;2022-09-27T05:54:44;10.10;99.90
20881;DHT22;10600;53.096;8.802;2022-09-27T05:55:45;10.10;99.90
20881;DHT22;10600;53.096;8.802;2022-09-27T05:56:45;10.10;99.90
20881;DHT22;10600;53.096;8.802;2022-09-27T05:57:57;10.10;99.90
20881;DHT22;10600;53.096;8.802;2022-09-27T05:58:58;10.10;99.90
20881;DHT22;10600;53.096;8.802;2022-09-27T05:59:59;10.10;99.90
20881;DHT22;10600;53.096;8.802;2022-09-27T06:01:00;10.00;99.90
20881;DHT22;10600;53.096;8.802;2022-09-27T06:02:00;10.00;99.90
20881;DHT22;10600;53.096;8.802;2022-09-27T06:03:03;10.10;99.90
20881;DHT22;10600;53.096;8.802;2022-09-27T06:04:04;10.00;99.90
20881;DHT22;10600;53.096;8.802;2022-09-27T06:05:06;10.10;99.90
20881;DHT22;10600;53.096;8.802;2022-09-27T06:06:07;10.10;99.90
20881;DHT22;10600;53.096;8.802;2022-09-27T06:07:10;10.00;99.90
20881;DHT22;10600;53.096;8.802;2022-09-27T06:08:12;10.10;99.90
20881;DHT22;10600;53.096;8.802;2022-09-27T06:09:14;10.00;99.90
20881;DHT22;10600;53.096;8.802;2022-09-27T06:10:17;10.10;99.90
20881;DHT22;10600;53.096;8.802;2022-09-27T06:11:18;10.10;99.90
20881;DHT22;10600;53.096;8.802;2022-09-27T06:12:18;10.10;99.90
20881;DHT22;10600;53.096;8.802;2022-09-27T06:13:19;10.10;99.90
20881;DHT22;10600;53.096;8.802;2022-09-27T06:14:20;10.10;99.90
20881;DHT22;10600;53.096;8.802;2022-09-27T06:15:21;10.10;99.90
20881;DHT22;10600;53.096;8.802;2022-09-27T06:16:22;10.10;99.90
20881;DHT22;10600;53.096;8.802;2022-09-27T06:17:22;10.10;99.90
20881;DHT22;10600;53.096;8.802;2022-09-27T06:18:23;10.10;99.90
20881;DHT22;10600;53.096;8.802;2022-09-27T06:19:24;10.10;99.90
20881;DHT22;10600;53.096;8.802;2022-09-27T06:20:24;10.10;99.90
20881;DHT22;10600;53.096;8.802;2022-09-27T06:21:26;10.10;99.90
20881;DHT22;10600;53.096;8.802;2022-09-27T06:22:28;10.20;99.90
20881;DHT22;10600;53.096;8.802;2022-09-27T06:23:29;10.10;99.90
20881;DHT22;10600;53.096;8.802;2022-09-27T06:24:32;10.10;99.90
20881;DHT22;10600;53.096;8.802;2022-09-27T06:25:35;10.20;99.90
20881;DHT22;10600;53.096;8.802;2022-09-27T06:26:36;10.20;99.90
20881;DHT22;10600;53.096;8.802;2022-09-27T06:27:36;10.20;99.90
20881;DHT22;10600;53.096;8.802;2022-09-27T06:28:37;10.20;99.90
20881;DHT22;10600;53.096;8.802;2022-09-27T06:29:38;10.20;99.90
20881;DHT22;10600;53.096;8.802;2022-09-27T06:30:43;10.30;99.90
20881;DHT22;10600;53.096;8.802;2022-09-27T06:31:44;10.30;99.90
20881;DHT22;10600;53.096;8.802;2022-09-27T06:32:45;10.30;99.90
20881;DHT22;10600;53.096;8.802;2022-09-27T06:33:46;10.30;99.90
20881;DHT22;10600;53.096;8.802;2022-09-27T06:34:47;10.30;99.90
20881;DHT22;10600;53.096;8.802;2022-09-27T06:35:47;10.30;99.90
20881;DHT22;10600;53.096;8.802;2022-09-27T06:36:49;10.30;99.90
20881;DHT22;10600;53.096;8.802;2022-09-27T06:37:51;10.30;99.90
20881;DHT22;10600;53.096;8.802;2022-09-27T06:38:52;10.30;99.90
20881;DHT22;10600;53.096;8.802;2022-09-27T06:39:53;10.30;99.90
20881;DHT22;10600;53.096;8.802;2022-09-27T06:40:53;10.30;99.90
20881;DHT22;10600;53.096;8.802;2022-09-27T06:41:57;10.30;99.90
20881;DHT22;10600;53.096;8.802;2022-09-27T06:43:06;10.30;99.90
20881;DHT22;10600;53.096;8.802;2022-09-27T06:44:08;10.30;99.90
20881;DHT22;10600;53.096;8.802;2022-09-27T06:45:09;10.30;99.90
20881;DHT22;10600;53.096;8.802;2022-09-27T06:46:10;10.40;99.90
20881;DHT22;10600;53.096;8.802;2022-09-27T06:47:10;10.40;99.90
20881;DHT22;10600;53.096;8.802;2022-09-27T06:48:12;10.40;99.90
20881;DHT22;10600;53.096;8.802;2022-09-27T06:49:13;10.40;99.90
20881;DHT22;10600;53.096;8.802;2022-09-27T06:50:14;10.50;99.90
20881;DHT22;10600;53.096;8.802;2022-09-27T06:51:15;10.50;99.90
20881;DHT22;10600;53.096;8.802;2022-09-27T06:52:15;10.50;99.90
20881;DHT22;10600;53.096;8.802;2022-09-27T06:53:16;10.50;99.90
20881;DHT22;10600;53.096;8.802;2022-09-27T06:54:17;10.50;99.90
20881;DHT22;10600;53.096;8.802;2022-09-27T06:55:18;10.50;99.90
20881;DHT22;10600;53.096;8.802;2022-09-27T06:56:19;10.50;99.90
20881;DHT22;10600;53.096;8.802;2022-09-27T06:57:19;10.50;99.90
20881;DHT22;10600;53.096;8.802;2022-09-27T06:58:40;10.50;99.90
20881;DHT22;10600;53.096;8.802;2022-09-27T06:59:59;10.50;99.90
20881;DHT22;10600;53.096;8.802;2022-09-27T07:01:18;10.50;99.90
20881;DHT22;10600;53.096;8.802;2022-09-27T07:02:19;10.50;99.90
20881;DHT22;10600;53.096;8.802;2022-09-27T07:03:21;10.50;99.90
20881;DHT22;10600;53.096;8.802;2022-09-27T07:04:31;10.50;99.90
20881;DHT22;10600;53.096;8.802;2022-09-27T07:05:32;10.50;99.90
20881;DHT22;10600;53.096;8.802;2022-09-27T07:06:33;10.60;99.90
20881;DHT22;10600;53.096;8.802;2022-09-27T07:07:35;10.60;99.90
20881;DHT22;10600;53.096;8.802;2022-09-27T07:08:35;10.60;99.90
20881;DHT22;10600;53.096;8.802;2022-09-27T07:09:38;10.60;99.90
20881;DHT22;10600;53.096;8.802;2022-09-27T07:10:40;10.60;99.90
20881;DHT22;10600;53.096;8.802;2022-09-27T07:11:40;10.60;99.90
20881;DHT22;10600;53.096;8.802;2022-09-27T07:12:43;10.70;99.90
20881;DHT22;10600;53.096;8.802;2022-09-27T07:13:46;10.70;99.90
20881;DHT22;10600;53.096;8.802;2022-09-27T07:14:47;10.60;99.90
20881;DHT22;10600;53.096;8.802;2022-09-27T07:15:49;10.60;99.90
20881;DHT22;10600;53.096;8.802;2022-09-27T07:16:49;10.60;99.90
20881;DHT22;10600;53.096;8.802;2022-09-27T07:17:57;10.60;99.90
20881;DHT22;10600;53.096;8.802;2022-09-27T07:18:58;10.60;99.90
20881;DHT22;10600;53.096;8.802;2022-09-27T07:19:59;10.60;99.90
20881;DHT22;10600;53.096;8.802;2022-09-27T07:21:00;10.60;99.90
20881;DHT22;10600;53.096;8.802;2022-09-27T07:22:01;10.60;99.90
20881;DHT22;10600;53.096;8.802;2022-09-27T07:23:03;10.60;99.90